createdAt,value
2023-02-22T00:00:19.253Z,100.00
2023-02-22T00:05:23.228Z,100.00
2023-02-22T00:10:27.031Z,100.00
2023-02-22T00:15:30.066Z,100.00
2023-02-22T00:20:33.341Z,100.00
2023-02-22T00:25:36.994Z,100.00
2023-02-22T00:30:40.153Z,100.00
2023-02-22T00:35:48.416Z,100.00
2023-02-22T00:40:52.331Z,100.00
2023-02-22T00:45:57.509Z,100.00
2023-02-22T00:51:01.970Z,100.00
2023-02-22T00:56:07.096Z,100.00
2023-02-22T01:01:11.638Z,100.00
2023-02-22T01:06:15.386Z,100.00
2023-02-22T01:11:19.054Z,100.00
2023-02-22T01:16:22.465Z,100.00
2023-02-22T01:21:25.721Z,100.00
2023-02-22T01:26:30.305Z,100.00
2023-02-22T01:31:33.437Z,100.00
2023-02-22T01:36:36.962Z,100.00
2023-02-22T01:41:40.656Z,100.00
2023-02-22T01:46:44.657Z,100.00
2023-02-22T01:51:53.000Z,100.00
2023-02-22T01:57:25.018Z,100.00
2023-02-22T02:02:29.652Z,100.00
2023-02-22T02:07:33.699Z,100.00
2023-02-22T02:12:37.480Z,100.00
2023-02-22T02:17:41.653Z,100.00
2023-02-22T02:23:08.647Z,100.00
2023-02-22T02:28:30.589Z,100.00
2023-02-22T02:33:35.834Z,100.00
2023-02-22T02:38:58.414Z,100.00
2023-02-22T02:44:18.228Z,100.00
2023-02-22T02:49:29.474Z,100.00
2023-02-22T02:54:33.647Z,100.00
2023-02-22T02:59:38.163Z,100.00
2023-02-22T03:05:07.619Z,100.00
2023-02-22T03:10:34.414Z,100.00
2023-02-22T03:15:59.583Z,100.00
2023-02-22T03:21:20.002Z,100.00
2023-02-22T03:26:33.601Z,100.00
2023-02-22T03:31:49.565Z,100.00
2023-02-22T03:37:04.890Z,100.00
2023-02-22T03:42:30.126Z,100.00
2023-02-22T03:47:42.607Z,100.00
2023-02-22T03:52:47.796Z,100.00
2023-02-22T03:58:01.510Z,100.00
2023-02-22T04:03:07.216Z,100.00
2023-02-22T04:08:10.401Z,100.00
2023-02-22T04:13:14.904Z,100.00
2023-02-22T04:18:22.465Z,100.00
2023-02-22T04:23:27.269Z,100.00
2023-02-22T04:28:31.111Z,100.00
2023-02-22T04:33:50.648Z,100.00
2023-02-22T04:39:00.364Z,100.00
2023-02-22T04:44:05.660Z,100.00
2023-02-22T04:49:09.153Z,100.00
2023-02-22T04:54:17.968Z,100.00
2023-02-22T04:59:23.570Z,100.00
2023-02-22T05:04:32.474Z,100.00
2023-02-22T05:09:35.997Z,100.00
2023-02-22T05:14:39.652Z,100.00
2023-02-22T05:19:43.800Z,100.00
2023-02-22T05:24:47.085Z,100.00
2023-02-22T05:29:50.208Z,100.00
2023-02-22T05:34:53.734Z,100.00
2023-02-22T05:39:56.981Z,98.69
2023-02-22T05:45:00.853Z,98.77
2023-02-22T05:50:04.526Z,98.46
2023-02-22T05:55:09.465Z,98.52
2023-02-22T06:00:20.206Z,98.74
2023-02-22T06:05:23.632Z,99.31
2023-02-22T06:10:27.660Z,99.69
2023-02-22T06:15:31.646Z,100.00
2023-02-22T06:20:35.826Z,100.00
2023-02-22T06:25:39.918Z,100.00
2023-02-22T06:30:43.522Z,100.00
2023-02-22T06:35:47.218Z,99.05
2023-02-22T06:40:50.563Z,94.54
2023-02-22T06:45:53.781Z,67.39
2023-02-22T06:50:57.284Z,55.77
2023-02-22T06:56:00.625Z,49.64
2023-02-22T07:01:04.244Z,45.06
2023-02-22T07:06:08.829Z,42.39
2023-02-22T07:11:12.607Z,41.10
2023-02-22T07:16:16.247Z,39.24
2023-02-22T07:21:19.531Z,40.15
2023-02-22T07:26:24.353Z,42.52
2023-02-22T07:31:29.657Z,42.03
2023-02-22T07:36:32.835Z,42.10
2023-02-22T07:41:35.861Z,41.86
2023-02-22T07:46:39.066Z,42.02
2023-02-22T07:51:42.774Z,42.07
2023-02-22T07:56:49.386Z,40.19
2023-02-22T08:01:53.019Z,40.53
2023-02-22T08:06:56.978Z,41.52
2023-02-22T08:12:00.121Z,39.77
2023-02-22T08:17:04.505Z,40.24
2023-02-22T08:22:08.188Z,38.75
2023-02-22T08:27:12.157Z,37.88
2023-02-22T08:32:16.962Z,38.99
2023-02-22T08:37:20.651Z,38.40
2023-02-22T08:42:24.546Z,37.53
2023-02-22T08:47:27.713Z,37.80
2023-02-22T08:52:31.721Z,37.84
2023-02-22T08:57:34.852Z,40.46
2023-02-22T09:02:38.335Z,37.50
2023-02-22T09:07:42.801Z,38.21
2023-02-22T09:12:46.240Z,37.99
2023-02-22T09:17:49.610Z,35.80
2023-02-22T09:22:54.083Z,34.30
2023-02-22T09:27:58.645Z,35.31
2023-02-22T09:33:05.744Z,35.79
2023-02-22T09:38:11.710Z,34.88
2023-02-22T09:43:38.117Z,34.37
2023-02-22T09:49:00.680Z,35.80
2023-02-22T09:54:06.593Z,37.25
2023-02-22T09:59:15.959Z,36.28
2023-02-22T10:04:42.800Z,37.48
2023-02-22T10:09:49.870Z,37.33
2023-02-22T10:14:58.986Z,34.85
2023-02-22T10:20:33.448Z,34.88
2023-02-22T10:25:39.520Z,34.41
2023-02-22T10:30:55.036Z,32.99
2023-02-22T10:35:58.983Z,33.37
2023-02-22T10:41:11.340Z,35.55
2023-02-22T10:46:19.893Z,33.69
2023-02-22T10:51:23.999Z,36.05
2023-02-22T10:56:28.796Z,35.07
2023-02-22T11:01:31.975Z,32.37
2023-02-22T11:06:38.425Z,36.28
2023-02-22T11:11:44.346Z,34.92
2023-02-22T11:16:53.570Z,38.83
2023-02-22T11:22:12.917Z,36.17
2023-02-22T11:27:31.849Z,37.21
2023-02-22T11:32:36.789Z,38.81
2023-02-22T11:37:40.353Z,37.53
2023-02-22T11:42:43.839Z,36.60
2023-02-22T11:47:52.976Z,37.01
2023-02-22T11:53:32.375Z,37.30
2023-02-22T11:58:47.512Z,37.59
2023-02-22T12:04:24.100Z,37.04
2023-02-22T12:09:33.274Z,37.99
2023-02-22T12:14:58.311Z,37.21
2023-02-22T12:20:10.575Z,39.71
2023-02-22T12:25:19.996Z,39.81
2023-02-22T12:30:29.269Z,39.01
2023-02-22T12:35:43.252Z,39.54
2023-02-22T12:41:14.339Z,36.63
2023-02-22T12:46:27.676Z,36.32
2023-02-22T12:51:42.226Z,34.96
2023-02-22T12:56:58.637Z,35.89
2023-02-22T13:02:13.963Z,34.70
2023-02-22T13:07:35.225Z,36.75
2023-02-22T13:12:42.950Z,38.16
2023-02-22T13:18:01.754Z,36.24
2023-02-22T13:23:19.494Z,37.46
2023-02-22T13:28:30.962Z,36.67
2023-02-22T13:33:53.252Z,37.28
2023-02-22T13:39:22.135Z,38.77
2023-02-22T13:45:04.724Z,37.24
2023-02-22T13:50:31.258Z,38.97
2023-02-22T13:55:37.411Z,38.08
2023-02-22T14:00:41.197Z,36.94
2023-02-22T14:05:45.216Z,39.81
2023-02-22T14:10:55.864Z,37.69
2023-02-22T14:16:02.871Z,36.70
2023-02-22T14:21:16.199Z,37.40
2023-02-22T14:26:31.023Z,38.78
2023-02-22T14:31:58.442Z,40.17
2023-02-22T14:37:10.906Z,38.44
2023-02-22T14:42:31.122Z,39.30
2023-02-22T14:47:44.117Z,40.50
2023-02-22T14:52:56.827Z,39.48
2023-02-22T14:58:19.721Z,39.98
2023-02-22T15:03:24.334Z,41.70
2023-02-22T15:08:28.816Z,42.04
2023-02-22T15:13:33.366Z,43.91
2023-02-22T15:18:43.882Z,45.77
2023-02-22T15:23:50.957Z,46.23
2023-02-22T15:29:00.547Z,46.93
2023-02-22T15:34:19.360Z,49.69
2023-02-22T15:39:27.357Z,49.71
2023-02-22T15:44:37.081Z,50.98
2023-02-22T15:49:40.989Z,52.60
2023-02-22T15:54:48.327Z,53.43
2023-02-22T15:59:56.159Z,53.98
2023-02-22T16:05:13.614Z,57.08
2023-02-22T16:10:30.128Z,58.97
2023-02-22T16:15:33.899Z,59.20
2023-02-22T16:20:39.041Z,66.35
2023-02-22T16:25:43.027Z,71.67
2023-02-22T16:30:58.664Z,74.29
2023-02-22T16:36:06.707Z,77.48
2023-02-22T16:41:09.901Z,80.03
2023-02-22T16:46:15.116Z,83.05
2023-02-22T16:51:26.311Z,85.44
2023-02-22T16:56:31.281Z,86.96
2023-02-22T17:01:35.408Z,87.49
2023-02-22T17:06:38.605Z,89.49
2023-02-22T17:11:42.973Z,91.58
2023-02-22T17:16:47.404Z,92.44
2023-02-22T17:21:51.048Z,93.78
2023-02-22T17:26:54.626Z,94.72
2023-02-22T17:31:57.892Z,96.51
2023-02-22T17:37:01.076Z,97.30
2023-02-22T17:42:04.826Z,98.67
2023-02-22T17:47:08.119Z,98.84
2023-02-22T17:52:15.854Z,96.74
2023-02-22T17:57:19.373Z,95.74
2023-02-22T18:02:22.680Z,93.71
2023-02-22T18:07:26.809Z,93.07
2023-02-22T18:12:30.538Z,90.94
2023-02-22T18:17:33.904Z,91.56
2023-02-22T18:22:42.958Z,91.29
2023-02-22T18:27:46.721Z,90.83
2023-02-22T18:32:50.238Z,90.44
2023-02-22T18:37:53.939Z,90.82
2023-02-22T18:42:57.491Z,90.80
2023-02-22T18:48:00.628Z,89.34
2023-02-22T18:53:03.860Z,89.89
2023-02-22T18:58:07.029Z,91.23
2023-02-22T19:03:10.607Z,93.18
2023-02-22T19:08:14.149Z,93.42
2023-02-22T19:13:19.196Z,93.62
2023-02-22T19:18:24.120Z,93.10
2023-02-22T19:23:28.626Z,92.18
2023-02-22T19:28:34.659Z,91.09
2023-02-22T19:33:38.675Z,89.98
2023-02-22T19:38:43.007Z,89.67
2023-02-22T19:43:47.606Z,89.56
2023-02-22T19:48:53.167Z,88.60
2023-02-22T19:54:02.754Z,88.71
2023-02-22T19:59:14.626Z,87.54
2023-02-22T20:04:21.921Z,86.69
2023-02-22T20:09:40.478Z,86.21
2023-02-22T20:14:45.204Z,84.60
2023-02-22T20:19:49.111Z,84.16
2023-02-22T20:24:52.765Z,83.17
2023-02-22T20:29:56.012Z,83.61
2023-02-22T20:34:59.868Z,84.45
2023-02-22T20:40:04.906Z,85.54
2023-02-22T20:45:11.025Z,86.96
2023-02-22T20:50:15.298Z,87.67
2023-02-22T20:55:19.301Z,85.62
2023-02-22T21:00:23.819Z,84.33
2023-02-22T21:05:27.632Z,84.40
2023-02-22T21:10:30.918Z,84.63
2023-02-22T21:15:40.201Z,86.27
2023-02-22T21:20:44.447Z,86.67
2023-02-22T21:25:54.257Z,87.13
2023-02-22T21:31:05.149Z,87.90
2023-02-22T21:36:14.594Z,86.91
2023-02-22T21:41:18.052Z,84.24
2023-02-22T21:46:22.923Z,80.77
2023-02-22T21:51:32.698Z,82.47
2023-02-22T21:56:40.024Z,84.60
2023-02-22T22:01:48.509Z,86.71
2023-02-22T22:06:54.128Z,88.07
2023-02-22T22:12:06.446Z,88.87
2023-02-22T22:17:09.837Z,89.56
2023-02-22T22:22:13.375Z,89.65
2023-02-22T22:27:16.933Z,90.03
2023-02-22T22:32:21.232Z,90.93
2023-02-22T22:37:24.386Z,91.25
2023-02-22T22:42:27.622Z,91.31
2023-02-22T22:47:31.185Z,90.93
2023-02-22T22:52:37.827Z,90.27
2023-02-22T22:57:41.955Z,89.89
2023-02-22T23:02:49.026Z,90.19
2023-02-22T23:07:53.454Z,89.84
2023-02-22T23:12:57.245Z,90.78
2023-02-22T23:18:00.374Z,91.10
2023-02-22T23:23:03.805Z,91.29
2023-02-22T23:28:14.869Z,91.50
2023-02-22T23:33:18.698Z,91.68
2023-02-22T23:38:21.881Z,92.71
2023-02-22T23:43:25.869Z,93.48
2023-02-22T23:48:30.361Z,93.85
2023-02-22T23:53:33.860Z,94.08
2023-02-22T23:58:38.451Z,94.49
